Time;durP1;ratioP1;P1;durP2;ratioP2;P2;SDS_P1;SDS_P2;PMS_P1;PMS_P2;Temp;Humidity;BMP_temperature;BMP_pressure;BME280_temperature;BME280_humidity;BME280_pressure;Samples;Min_cycle;Max_cycle;Signal;HPM_P1;HPM_P2
2022/10/26 00:02:24;;;;;;;22.63;10.20;;;10.30;99.90;;;;;;5047608;28;20037;-81
2022/10/26 00:04:49;;;;;;;18.85;10.25;;;10.40;99.90;;;;;;5044307;28;20409;-79
2022/10/26 00:07:15;;;;;;;22.67;9.85;;;10.30;99.90;;;;;;5045510;28;20242;-76
2022/10/26 00:09:41;;;;;;;20.33;10.77;;;10.30;99.90;;;;;;5042513;28;20090;-80
2022/10/26 00:12:06;;;;;;;21.75;10.57;;;10.30;99.90;;;;;;5059462;28;20057;-77
2022/10/26 00:14:32;;;;;;;19.45;9.95;;;10.40;99.90;;;;;;5031327;28;20033;-79
2022/10/26 00:16:57;;;;;;;22.55;10.27;;;10.40;99.90;;;;;;5044314;28;20179;-81
2022/10/26 00:19:23;;;;;;;21.55;9.30;;;10.50;99.90;;;;;;5027956;28;20126;-78
2022/10/26 00:21:49;;;;;;;18.48;10.10;;;10.40;99.90;;;;;;5030078;28;20215;-80
2022/10/26 00:24:14;;;;;;;24.58;10.38;;;10.40;99.90;;;;;;5061461;28;20037;-79
2022/10/26 00:26:40;;;;;;;17.05;9.95;;;10.50;99.90;;;;;;5051005;28;20106;-77
2022/10/26 00:29:06;;;;;;;16.95;10.00;;;10.40;99.90;;;;;;5060989;28;20044;-81
2022/10/26 00:31:32;;;;;;;17.98;9.65;;;10.30;99.90;;;;;;5027067;28;20041;-80
2022/10/26 00:33:57;;;;;;;23.45;10.02;;;10.50;99.90;;;;;;5031783;28;20071;-80
2022/10/26 00:36:25;;;;;;;21.63;10.07;;;10.30;99.90;;;;;;5045663;28;20135;-79
2022/10/26 00:38:52;;;;;;;16.25;9.95;;;10.50;99.90;;;;;;5048302;28;20051;-81
2022/10/26 00:41:28;;;;;;;19.58;10.45;;;10.40;99.90;;;;;;5047549;28;20480;-78
2022/10/26 00:43:54;;;;;;;18.85;10.23;;;10.30;99.90;;;;;;5047101;28;20136;-79
2022/10/26 00:46:29;;;;;;;20.75;9.95;;;10.40;99.90;;;;;;5043509;28;20045;-77
2022/10/26 00:49:05;;;;;;;21.58;10.10;;;10.50;99.90;;;;;;5042996;28;20480;-79
2022/10/26 00:51:44;;;;;;;18.50;10.40;;;10.30;99.90;;;;;;5025176;28;20056;-81
2022/10/26 00:54:18;;;;;;;22.42;10.45;;;10.50;99.90;;;;;;5027987;28;20068;-79
2022/10/26 00:56:48;;;;;;;19.17;11.25;;;10.40;99.90;;;;;;5029107;28;20488;-80
2022/10/26 00:59:15;;;;;;;19.70;11.20;;;10.40;99.90;;;;;;5057579;28;20036;-77
2022/10/26 01:01:43;;;;;;;23.80;11.10;;;10.40;99.90;;;;;;5041441;28;20072;-80
2022/10/26 01:04:09;;;;;;;24.15;11.50;;;10.40;99.90;;;;;;5022293;28;20087;-78
2022/10/26 01:06:36;;;;;;;25.02;11.80;;;10.40;99.90;;;;;;5043668;28;20037;-79
2022/10/26 01:09:03;;;;;;;18.08;11.02;;;10.50;99.90;;;;;;5025202;28;20039;-79
2022/10/26 01:11:29;;;;;;;28.42;11.88;;;10.30;99.90;;;;;;5044879;28;20079;-76
2022/10/26 01:13:57;;;;;;;19.77;10.85;;;10.40;99.90;;;;;;5049308;28;20061;-78
2022/10/26 01:16:56;;;;;;;21.48;10.73;;;10.40;99.90;;;;;;5050642;28;20041;-80
2022/10/26 01:19:59;;;;;;;18.83;10.82;;;10.40;99.90;;;;;;5051438;28;20125;-77
2022/10/26 01:22:32;;;;;;;21.05;11.02;;;10.40;99.90;;;;;;5027962;28;20037;-78
2022/10/26 01:25:12;;;;;;;21.45;11.15;;;10.40;99.90;;;;;;5024133;28;20044;-79
2022/10/26 01:27:41;;;;;;;20.45;10.73;;;10.30;99.90;;;;;;5076203;28;20422;-81
2022/10/26 01:30:27;;;;;;;19.10;11.07;;;10.30;99.90;;;;;;5022026;28;20049;-78
2022/10/26 01:33:09;;;;;;;23.10;11.32;;;10.40;99.90;;;;;;5023016;28;20040;-79
2022/10/26 01:35:51;;;;;;;23.92;10.60;;;10.30;99.90;;;;;;5027379;28;20519;-81
2022/10/26 01:38:21;;;;;;;24.17;11.77;;;10.30;99.90;;;;;;5029408;28;20366;-77
2022/10/26 01:41:11;;;;;;;21.25;11.63;;;10.20;99.90;;;;;;5039351;28;20047;-78
2022/10/26 01:43:41;;;;;;;24.75;12.05;;;10.20;99.90;;;;;;5030633;28;20931;-78
2022/10/26 01:46:09;;;;;;;21.13;10.60;;;10.20;99.90;;;;;;5040601;28;20051;-76
2022/10/26 01:48:36;;;;;;;22.23;12.02;;;10.10;99.90;;;;;;5042178;28;20045;-77
2022/10/26 01:51:05;;;;;;;22.83;11.75;;;10.00;99.90;;;;;;5075198;28;20059;-79
2022/10/26 01:53:30;;;;;;;29.85;12.50;;;10.10;99.90;;;;;;5039554;28;20392;-78
2022/10/26 01:55:58;;;;;;;22.60;12.02;;;10.00;99.90;;;;;;5059751;28;20041;-77
2022/10/26 01:58:45;;;;;;;31.65;12.50;;;9.90;99.90;;;;;;5043756;28;20036;-77
2022/10/26 02:01:41;;;;;;;24.17;12.30;;;9.90;99.90;;;;;;5027155;28;20060;-81
2022/10/26 02:04:39;;;;;;;21.05;12.27;;;9.90;99.90;;;;;;5042188;28;20044;-79
2022/10/26 02:07:23;;;;;;;23.27;12.75;;;9.90;99.90;;;;;;5025566;28;20349;-78
2022/10/26 02:10:09;;;;;;;20.02;12.07;;;9.90;99.90;;;;;;5027818;28;20049;-80
2022/10/26 02:12:35;;;;;;;22.90;12.15;;;9.80;99.90;;;;;;5074902;28;21694;-79
2022/10/26 02:15:35;;;;;;;27.48;12.55;;;9.80;99.90;;;;;;5055944;28;20063;-79
2022/10/26 02:18:20;;;;;;;28.05;12.82;;;9.70;99.90;;;;;;4982279;28;20099;-78
2022/10/26 02:20:52;;;;;;;25.37;12.47;;;9.70;99.90;;;;;;4972880;28;20359;-79
2022/10/26 02:23:20;;;;;;;25.58;13.38;;;9.70;99.90;;;;;;4969918;28;20050;-79
2022/10/26 02:25:54;;;;;;;29.52;13.15;;;9.80;99.90;;;;;;4984786;28;20077;-78
2022/10/26 02:28:26;;;;;;;22.63;12.73;;;9.70;99.90;;;;;;4983774;28;20137;-78
2022/10/26 02:30:56;;;;;;;28.20;12.82;;;9.60;99.90;;;;;;4984210;28;20342;-79
2022/10/26 02:33:24;;;;;;;24.52;12.88;;;9.50;99.90;;;;;;5001134;28;20042;-80
2022/10/26 02:35:53;;;;;;;28.23;13.55;;;9.60;99.90;;;;;;4987614;28;20065;-82
2022/10/26 02:38:36;;;;;;;23.08;12.38;;;9.60;99.90;;;;;;4971179;28;20080;-79
2022/10/26 02:41:03;;;;;;;23.25;11.75;;;9.50;99.90;;;;;;4991562;28;20149;-76
2022/10/26 02:43:32;;;;;;;26.50;12.70;;;9.60;99.90;;;;;;4992870;28;20060;-79
2022/10/26 02:46:07;;;;;;;29.40;12.93;;;9.50;99.90;;;;;;4979181;28;20204;-76
2022/10/26 02:48:33;;;;;;;29.80;12.98;;;9.50;99.90;;;;;;4993476;28;20450;-80
2022/10/26 02:51:15;;;;;;;25.02;13.00;;;9.50;99.90;;;;;;5003509;28;20438;-78
2022/10/26 02:54:18;;;;;;;24.38;12.90;;;9.40;99.90;;;;;;4980263;28;20429;-79
2022/10/26 02:56:59;;;;;;;26.92;13.63;;;9.40;99.90;;;;;;5043402;28;20186;-77
2022/10/26 02:59:28;;;;;;;25.85;13.57;;;9.50;99.90;;;;;;5025627;28;20048;-80
2022/10/26 03:01:55;;;;;;;25.02;13.38;;;9.40;99.90;;;;;;5078563;28;20063;-77
2022/10/26 03:04:31;;;;;;;25.40;13.32;;;9.30;99.90;;;;;;5043240;28;20035;-80
2022/10/26 03:06:58;;;;;;;29.98;13.45;;;9.40;99.90;;;;;;5080142;28;20465;-77
2022/10/26 03:09:24;;;;;;;29.95;14.15;;;9.30;99.90;;;;;;5043750;28;20037;-77
2022/10/26 03:11:49;;;;;;;22.73;13.05;;;9.20;99.90;;;;;;5047257;28;20530;-77
2022/10/26 03:14:15;;;;;;;26.77;13.88;;;9.30;99.90;;;;;;5045294;28;20037;-80
2022/10/26 03:16:41;;;;;;;28.52;14.48;;;9.30;99.90;;;;;;5044568;28;20037;-79
2022/10/26 03:19:07;;;;;;;28.58;13.98;;;9.30;99.90;;;;;;5047513;28;20528;-81
2022/10/26 03:21:32;;;;;;;27.55;13.68;;;9.30;99.90;;;;;;5047235;28;20191;-76
2022/10/26 03:23:58;;;;;;;25.75;13.80;;;9.20;99.90;;;;;;5044238;28;20044;-77
2022/10/26 03:26:24;;;;;;;29.13;14.30;;;9.20;99.90;;;;;;5063270;28;20139;-76
2022/10/26 03:28:49;;;;;;;21.27;12.80;;;9.30;99.90;;;;;;5052688;28;20059;-74
2022/10/26 03:31:15;;;;;;;24.25;13.55;;;9.10;99.90;;;;;;5077782;28;20415;-80
2022/10/26 03:33:41;;;;;;;22.30;12.98;;;9.10;99.90;;;;;;5047484;28;20041;-77
2022/10/26 03:36:07;;;;;;;24.83;13.13;;;9.20;99.90;;;;;;5032987;28;20134;-78
2022/10/26 03:38:33;;;;;;;24.02;13.43;;;9.20;99.90;;;;;;5046430;28;20051;-77
2022/10/26 03:40:58;;;;;;;23.20;13.05;;;9.20;99.90;;;;;;5025956;28;20056;-81
2022/10/26 03:43:24;;;;;;;22.55;13.18;;;9.10;99.90;;;;;;5048909;28;20052;-77
2022/10/26 03:45:50;;;;;;;24.45;13.75;;;9.20;99.90;;;;;;5034288;28;20492;-79
2022/10/26 03:48:15;;;;;;;27.48;13.48;;;9.10;99.90;;;;;;5029330;28;20243;-79
2022/10/26 03:50:41;;;;;;;23.05;13.60;;;9.30;99.90;;;;;;5079237;28;20037;-78
2022/10/26 03:53:06;;;;;;;26.75;14.05;;;9.20;99.90;;;;;;5046721;28;20049;-82
2022/10/26 03:55:32;;;;;;;27.75;13.50;;;9.20;99.90;;;;;;5041735;28;20166;-77
2022/10/26 03:57:58;;;;;;;24.75;14.73;;;9.20;99.90;;;;;;5051409;28;20118;-78
2022/10/26 04:00:24;;;;;;;24.90;14.75;;;9.30;99.90;;;;;;5033262;28;20045;-79
2022/10/26 04:02:57;;;;;;;23.90;14.85;;;9.30;99.90;;;;;;5034670;28;20048;-80
2022/10/26 04:05:26;;;;;;;23.15;15.10;;;9.30;99.90;;;;;;5050339;28;20075;-78
2022/10/26 04:07:57;;;;;;;27.70;15.98;;;9.30;99.90;;;;;;5051656;28;20063;-79
2022/10/26 04:10:25;;;;;;;25.10;15.73;;;9.30;99.90;;;;;;5056245;28;20083;-76
2022/10/26 04:12:51;;;;;;;26.90;15.18;;;9.30;99.90;;;;;;5018614;28;20041;-81
2022/10/26 04:15:17;;;;;;;26.67;16.23;;;9.30;99.90;;;;;;5051990;28;20088;-80
2022/10/26 04:17:42;;;;;;;27.95;15.80;;;9.40;99.90;;;;;;5047699;28;20044;-78
2022/10/26 04:20:10;;;;;;;24.45;16.42;;;9.30;99.90;;;;;;5086441;28;20037;-78
2022/10/26 04:22:36;;;;;;;26.23;15.82;;;9.30;99.90;;;;;;5078983;28;20128;-79
2022/10/26 04:25:03;;;;;;;27.42;17.75;;;9.30;99.90;;;;;;5057575;28;21852;-79
2022/10/26 04:27:29;;;;;;;32.47;17.05;;;9.30;99.90;;;;;;5032077;28;20032;-79
2022/10/26 04:29:54;;;;;;;28.70;17.15;;;9.30;99.90;;;;;;5048627;28;20144;-76
2022/10/26 04:32:20;;;;;;;27.88;17.67;;;9.30;99.90;;;;;;5032006;28;20407;-81
2022/10/26 04:34:46;;;;;;;26.50;16.83;;;9.20;99.90;;;;;;5064597;28;20052;-81
2022/10/26 04:37:11;;;;;;;32.00;18.48;;;9.20;99.90;;;;;;5042542;28;20032;-82
2022/10/26 04:39:37;;;;;;;28.73;18.00;;;9.40;99.90;;;;;;5011385;28;20041;-78
2022/10/26 04:42:03;;;;;;;37.65;18.50;;;9.40;99.90;;;;;;5027429;28;20044;-79
2022/10/26 04:44:28;;;;;;;31.30;19.13;;;9.30;99.90;;;;;;5083162;28;20057;-81
2022/10/26 04:46:54;;;;;;;32.10;18.65;;;9.40;99.90;;;;;;5065030;28;20464;-78
2022/10/26 04:49:20;;;;;;;35.38;19.08;;;9.40;99.90;;;;;;5031317;28;20087;-75
2022/10/26 04:51:45;;;;;;;31.27;18.40;;;9.50;99.90;;;;;;5065472;28;20127;-80
2022/10/26 04:54:11;;;;;;;31.55;18.15;;;9.50;99.90;;;;;;5058428;28;20125;-80
2022/10/26 04:56:36;;;;;;;32.83;18.85;;;9.60;99.90;;;;;;5030926;28;20045;-76
2022/10/26 04:59:02;;;;;;;32.65;18.77;;;9.70;99.90;;;;;;5045608;28;20228;-81
2022/10/26 05:01:30;;;;;;;44.88;19.75;;;9.70;99.90;;;;;;5033020;28;20056;-79
2022/10/26 05:03:55;;;;;;;39.63;19.70;;;9.70;99.90;;;;;;5065407;28;20082;-79
2022/10/26 05:06:30;;;;;;;31.33;19.20;;;9.80;99.90;;;;;;5047633;28;20041;-80
2022/10/26 05:08:56;;;;;;;29.38;18.77;;;9.70;99.90;;;;;;5080625;28;20044;-77
2022/10/26 05:11:22;;;;;;;35.53;19.67;;;9.80;99.90;;;;;;5047060;28;20479;-79
2022/10/26 05:13:48;;;;;;;37.17;19.65;;;9.80;99.90;;;;;;5047831;28;20040;-77
2022/10/26 05:16:15;;;;;;;36.70;19.30;;;9.80;99.90;;;;;;5043513;28;20032;-78
2022/10/26 05:18:40;;;;;;;37.60;20.10;;;9.90;99.90;;;;;;5044275;28;20121;-80
2022/10/26 05:21:06;;;;;;;39.10;20.15;;;10.00;99.90;;;;;;5024599;28;20481;-80
2022/10/26 05:23:32;;;;;;;31.65;18.88;;;9.90;99.90;;;;;;5047083;28;21766;-79
2022/10/26 05:25:58;;;;;;;31.13;19.58;;;9.90;99.90;;;;;;5047344;28;20036;-83
2022/10/26 05:28:24;;;;;;;33.85;19.50;;;9.90;99.90;;;;;;5029277;28;20457;-81
2022/10/26 05:30:49;;;;;;;34.15;18.98;;;10.00;99.90;;;;;;5062253;28;20212;-79
2022/10/26 05:33:15;;;;;;;29.63;18.67;;;10.00;99.90;;;;;;5047894;28;20041;-76
2022/10/26 05:35:41;;;;;;;35.05;19.23;;;9.90;99.90;;;;;;5047596;28;20060;-78
2022/10/26 05:38:13;;;;;;;29.38;18.85;;;10.00;99.90;;;;;;5047289;28;20044;-80
2022/10/26 05:40:50;;;;;;;30.35;19.17;;;10.00;99.90;;;;;;5046436;28;20369;-78
2022/10/26 05:43:17;;;;;;;34.72;19.15;;;9.90;99.90;;;;;;5048698;28;20115;-77
2022/10/26 05:45:43;;;;;;;35.63;19.77;;;10.00;99.90;;;;;;5033152;28;20361;-77
2022/10/26 05:48:09;;;;;;;32.97;19.33;;;10.00;99.90;;;;;;5052334;28;20106;-78
2022/10/26 05:50:34;;;;;;;34.55;18.95;;;10.00;99.90;;;;;;5035248;28;20410;-77
2022/10/26 05:53:00;;;;;;;33.22;19.58;;;10.00;99.90;;;;;;5059266;28;20095;-79
2022/10/26 05:55:26;;;;;;;32.20;18.98;;;10.00;99.90;;;;;;5043935;28;20040;-82
2022/10/26 05:57:52;;;;;;;32.92;19.65;;;10.10;99.90;;;;;;5040228;28;20033;-79
2022/10/26 06:00:23;;;;;;;32.17;19.02;;;10.00;99.90;;;;;;5043041;28;20768;-77
2022/10/26 06:03:01;;;;;;;36.22;18.48;;;10.00;99.90;;;;;;5042233;28;20045;-81
2022/10/26 06:05:35;;;;;;;30.75;17.58;;;10.10;99.90;;;;;;5038216;28;20041;-77
2022/10/26 06:08:01;;;;;;;31.70;18.52;;;10.20;99.90;;;;;;5038582;28;20114;-79
2022/10/26 06:10:27;;;;;;;29.58;17.08;;;10.20;99.90;;;;;;5045551;28;20449;-79
2022/10/26 06:12:53;;;;;;;31.13;16.48;;;10.10;99.90;;;;;;5044250;28;20037;-79
2022/10/26 06:15:21;;;;;;;31.90;17.13;;;10.20;99.90;;;;;;5044348;28;20041;-79
2022/10/26 06:17:52;;;;;;;26.65;15.90;;;10.20;99.90;;;;;;5039481;28;20107;-79
2022/10/26 06:20:36;;;;;;;27.40;16.08;;;10.20;99.90;;;;;;5028319;28;20041;-79
2022/10/26 06:23:40;;;;;;;25.42;15.90;;;10.20;99.90;;;;;;5043594;28;20037;-78
2022/10/26 06:26:29;;;;;;;28.75;15.70;;;10.30;99.90;;;;;;5043170;28;20053;-79
2022/10/26 06:28:58;;;;;;;25.15;16.55;;;10.20;99.90;;;;;;5022885;28;20135;-78
2022/10/26 06:31:23;;;;;;;27.60;15.90;;;10.20;99.90;;;;;;5041919;28;20067;-80
2022/10/26 06:33:51;;;;;;;27.98;16.35;;;10.30;99.90;;;;;;5043216;28;20041;-80
2022/10/26 06:36:24;;;;;;;32.35;17.48;;;10.30;99.90;;;;;;5045669;28;20052;-81
2022/10/26 06:38:58;;;;;;;30.20;16.42;;;10.20;99.90;;;;;;5046210;28;20044;-81
2022/10/26 06:41:25;;;;;;;30.10;17.50;;;10.10;99.90;;;;;;5045717;28;20128;-80
2022/10/26 06:43:52;;;;;;;27.48;17.38;;;10.30;99.90;;;;;;5060845;28;20053;-79
2022/10/26 06:46:31;;;;;;;30.80;17.20;;;10.30;99.90;;;;;;5047188;28;20116;-78
2022/10/26 06:49:06;;;;;;;29.45;17.02;;;10.30;99.90;;;;;;5038882;28;20094;-76
2022/10/26 06:51:35;;;;;;;;;;;10.30;99.90;;;;;;5032947;28;20044;-77
2022/10/26 06:54:22;;;;;;;26.73;16.55;;;10.30;99.90;;;;;;5026592;28;19923;-79
2022/10/26 06:56:50;;;;;;;27.35;16.58;;;10.40;99.90;;;;;;5044059;28;20063;-78
2022/10/26 06:59:29;;;;;;;31.10;15.90;;;10.30;99.90;;;;;;5044805;28;20052;-79
2022/10/26 07:01:55;;;;;;;24.35;15.18;;;10.40;99.90;;;;;;5044936;28;20072;-76
2022/10/26 07:04:20;;;;;;;26.88;15.77;;;10.40;99.90;;;;;;5045620;28;20431;-80
2022/10/26 07:06:46;;;;;;;26.42;15.07;;;10.50;99.90;;;;;;5028398;28;20365;-79
2022/10/26 07:09:21;;;;;;;31.48;15.02;;;10.40;99.90;;;;;;5044044;28;20045;-80
2022/10/26 07:11:46;;;;;;;;;;;10.40;99.90;;;;;;5033988;28;20088;-80
2022/10/26 07:14:12;;;;;;;25.70;14.10;;;10.50;99.90;;;;;;5068245;28;19960;-77
2022/10/26 07:16:37;;;;;;;22.63;12.80;;;10.60;99.90;;;;;;5051138;28;20157;-78
2022/10/26 07:19:03;;;;;;;22.15;13.35;;;10.70;99.90;;;;;;5032992;28;20072;-77
2022/10/26 07:21:29;;;;;;;21.33;11.95;;;10.70;99.90;;;;;;5046548;28;20060;-81
2022/10/26 07:23:55;;;;;;;20.25;12.45;;;10.70;99.90;;;;;;5047372;28;20037;-78
2022/10/26 07:26:24;;;;;;;21.50;12.70;;;10.80;99.90;;;;;;5047062;28;20615;-78
2022/10/26 07:28:50;;;;;;;20.50;11.88;;;10.70;99.90;;;;;;5030767;28;20093;-79
2022/10/26 07:31:16;;;;;;;18.55;11.45;;;10.80;99.90;;;;;;5067206;28;20068;-81
2022/10/26 07:33:43;;;;;;;21.17;12.20;;;10.90;99.90;;;;;;5035368;28;20071;-82
2022/10/26 07:36:09;;;;;;;21.38;11.48;;;10.90;99.90;;;;;;5035335;28;20122;-78
2022/10/26 07:38:36;;;;;;;20.17;11.90;;;10.90;99.90;;;;;;5034384;28;20408;-79
2022/10/26 07:41:02;;;;;;;16.92;11.45;;;11.00;99.90;;;;;;5051434;28;20052;-80
2022/10/26 07:43:28;;;;;;;20.95;11.63;;;11.00;99.90;;;;;;5051226;28;20163;-78
2022/10/26 07:45:54;;;;;;;17.90;11.40;;;11.00;99.90;;;;;;5051707;28;20467;-79
2022/10/26 07:48:19;;;;;;;22.75;11.52;;;11.20;99.90;;;;;;5046778;28;20042;-80
2022/10/26 07:50:45;;;;;;;18.75;11.38;;;11.10;99.90;;;;;;5050842;28;20052;-80
2022/10/26 07:53:11;;;;;;;24.55;10.95;;;11.20;99.90;;;;;;5033344;28;20049;-80
2022/10/26 07:55:36;;;;;;;20.00;11.30;;;11.10;99.90;;;;;;5045499;28;20134;-80
2022/10/26 07:58:02;;;;;;;30.70;10.88;;;11.40;99.90;;;;;;5043381;28;20049;-83
2022/10/26 08:00:28;;;;;;;19.45;10.38;;;11.30;99.90;;;;;;5044627;28;20060;-77
2022/10/26 08:02:54;;;;;;;16.77;9.98;;;11.50;99.90;;;;;;5074380;28;20592;-79
2022/10/26 08:05:21;;;;;;;20.27;10.18;;;11.50;99.90;;;;;;5058743;28;20052;-79
2022/10/26 08:07:47;;;;;;;20.55;10.80;;;11.60;99.90;;;;;;5037658;28;20053;-78
2022/10/26 08:10:13;;;;;;;20.23;9.90;;;11.60;99.90;;;;;;5057384;28;20122;-80
2022/10/26 08:12:40;;;;;;;14.55;9.70;;;11.60;99.90;;;;;;5026503;28;20076;-81
2022/10/26 08:15:07;;;;;;;17.25;9.60;;;11.70;99.90;;;;;;5044114;28;20053;-78
2022/10/26 08:17:32;;;;;;;19.70;9.65;;;11.80;99.90;;;;;;5045135;28;20157;-78
2022/10/26 08:19:58;;;;;;;17.40;9.32;;;11.80;99.90;;;;;;5043282;28;20103;-79
2022/10/26 08:22:24;;;;;;;22.20;8.80;;;11.90;99.90;;;;;;5042904;28;20129;-77
2022/10/26 08:24:49;;;;;;;17.85;8.93;;;12.00;99.90;;;;;;5055285;28;20047;-77
2022/10/26 08:27:16;;;;;;;18.60;8.60;;;12.10;99.90;;;;;;5027930;28;20120;-78
2022/10/26 08:29:43;;;;;;;16.23;8.48;;;12.20;99.90;;;;;;5028857;28;20045;-77
2022/10/26 08:32:08;;;;;;;15.60;8.48;;;12.20;99.90;;;;;;5044147;28;20044;-79
2022/10/26 08:34:34;;;;;;;11.38;7.53;;;12.30;99.90;;;;;;5045926;28;20468;-76
2022/10/26 08:37:00;;;;;;;15.00;7.72;;;12.40;99.90;;;;;;5045862;28;20080;-79
2022/10/26 08:39:27;;;;;;;11.40;7.57;;;12.50;99.90;;;;;;5048085;28;20135;-78
2022/10/26 08:42:49;;;;;;;15.65;6.88;;;12.50;99.90;;;;;;5034039;28;20139;-78
2022/10/26 08:45:26;;;;;;;16.63;6.90;;;12.60;99.90;;;;;;5079540;28;20041;-76
2022/10/26 08:47:57;;;;;;;18.60;6.70;;;12.70;99.90;;;;;;5027865;28;20037;-80
2022/10/26 08:50:37;;;;;;;16.38;5.57;;;12.70;99.90;;;;;;5055431;28;20044;-76
2022/10/26 08:53:11;;;;;;;13.15;6.10;;;12.80;99.90;;;;;;5041298;28;20079;-80
2022/10/26 08:55:45;;;;;;;15.13;6.13;;;12.80;99.90;;;;;;5045661;28;20057;-79
2022/10/26 08:58:19;;;;;;;15.88;5.75;;;12.90;99.90;;;;;;5027522;28;20537;-79
2022/10/26 09:00:48;;;;;;;8.27;5.25;;;13.00;99.90;;;;;;5045481;28;20048;-76
2022/10/26 09:03:16;;;;;;;16.80;5.55;;;13.10;99.90;;;;;;5042148;28;20763;-79
2022/10/26 09:06:06;;;;;;;12.73;4.78;;;13.20;99.90;;;;;;5022620;28;20060;-80
2022/10/26 09:08:51;;;;;;;13.65;4.90;;;13.20;99.90;;;;;;5041460;28;20098;-78
2022/10/26 09:11:30;;;;;;;12.90;5.00;;;13.40;99.90;;;;;;5056527;28;20053;-79
2022/10/26 09:14:18;;;;;;;9.75;4.30;;;13.40;99.90;;;;;;5039810;28;20044;-77
2022/10/26 09:17:20;;;;;;;13.40;5.00;;;13.40;99.90;;;;;;5020171;28;20040;-77
2022/10/26 09:20:11;;;;;;;17.48;4.63;;;13.60;99.90;;;;;;5037888;28;20051;-77
2022/10/26 09:22:51;;;;;;;9.00;4.32;;;13.70;99.90;;;;;;5022521;28;20381;-77
2022/10/26 09:25:18;;;;;;;12.82;4.38;;;13.60;99.90;;;;;;5020570;28;20052;-77
2022/10/26 09:27:50;;;;;;;9.18;4.28;;;13.80;99.90;;;;;;5027367;28;20055;-80
2022/10/26 09:30:19;;;;;;;8.60;4.00;;;13.90;99.90;;;;;;5023566;28;20048;-79
2022/10/26 09:33:14;;;;;;;15.43;4.20;;;14.00;99.90;;;;;;5024499;28;20059;-80
2022/10/26 09:35:45;;;;;;;9.73;3.70;;;14.00;99.90;;;;;;5020770;28;20123;-78
2022/10/26 09:38:28;;;;;;;13.45;4.25;;;14.20;99.90;;;;;;5040629;28;20057;-78
2022/10/26 09:41:19;;;;;;;11.48;3.90;;;14.20;99.90;;;;;;5048983;28;20365;-76
2022/10/26 09:44:16;;;;;;;8.30;3.10;;;14.40;99.90;;;;;;5027788;28;20049;-76
2022/10/26 09:47:05;;;;;;;7.63;3.42;;;14.40;99.90;;;;;;5047644;28;20159;-78
2022/10/26 09:49:53;;;;;;;11.90;3.17;;;14.60;99.90;;;;;;5041255;28;20515;-79
2022/10/26 09:52:19;;;;;;;11.38;3.72;;;14.70;99.90;;;;;;5030284;28;20814;-77
2022/10/26 09:54:45;;;;;;;8.52;3.53;;;14.80;99.90;;;;;;5031368;28;20053;-80
2022/10/26 09:57:14;;;;;;;14.80;3.35;;;14.80;99.90;;;;;;5032260;28;20102;-79
2022/10/26 09:59:41;;;;;;;7.25;3.50;;;15.00;99.90;;;;;;5072951;28;20053;-78
2022/10/26 10:02:36;;;;;;;9.93;3.60;;;15.00;99.90;;;;;;5051257;28;20439;-77
2022/10/26 10:05:19;;;;;;;8.60;3.35;;;15.10;99.90;;;;;;5082347;28;20075;-76
2022/10/26 10:07:44;;;;;;;11.77;3.28;;;15.20;99.90;;;;;;5050134;28;20049;-80
2022/10/26 10:10:28;;;;;;;8.32;3.53;;;15.30;99.90;;;;;;5051244;28;20091;-77
2022/10/26 10:12:54;;;;;;;9.93;3.35;;;15.50;99.90;;;;;;5040276;28;20350;-78
2022/10/26 10:15:24;;;;;;;6.00;2.88;;;15.40;99.90;;;;;;5032743;28;20061;-78
2022/10/26 10:17:52;;;;;;;8.52;2.92;;;15.50;99.90;;;;;;5034016;28;20160;-78
2022/10/26 10:20:45;;;;;;;12.68;3.55;;;15.60;99.90;;;;;;5033963;28;20061;-79
2022/10/26 10:23:28;;;;;;;11.45;2.72;;;15.70;99.90;;;;;;5026539;28;20056;-79
2022/10/26 10:26:09;;;;;;;13.00;3.45;;;15.80;99.90;;;;;;5043789;28;20048;-78
2022/10/26 10:28:36;;;;;;;6.97;2.90;;;15.80;99.90;;;;;;5030421;28;20077;-79
2022/10/26 10:31:26;;;;;;;8.68;3.45;;;15.80;99.90;;;;;;5045314;28;20057;-78
2022/10/26 10:33:52;;;;;;;9.15;3.13;;;15.70;99.90;;;;;;5046341;28;20103;-79
2022/10/26 10:36:24;;;;;;;10.38;3.20;;;15.60;99.90;;;;;;5027790;28;20055;-82
2022/10/26 10:38:52;;;;;;;6.35;2.83;;;15.80;99.90;;;;;;5029168;28;20044;-79
2022/10/26 10:41:27;;;;;;;8.95;3.03;;;15.80;99.90;;;;;;5034383;28;20072;-82
2022/10/26 10:44:06;;;;;;;8.55;3.00;;;15.80;99.90;;;;;;5061638;28;20047;-79
2022/10/26 10:46:32;;;;;;;8.65;3.10;;;15.90;99.90;;;;;;5028036;28;20059;-80
2022/10/26 10:49:04;;;;;;;8.73;3.13;;;16.00;99.90;;;;;;5058943;28;20045;-79
2022/10/26 10:51:35;;;;;;;8.27;2.70;;;16.00;99.90;;;;;;5081482;28;20171;-81
2022/10/26 10:54:03;;;;;;;12.20;3.35;;;16.00;99.90;;;;;;5032638;28;20381;-78
2022/10/26 10:57:09;;;;;;;7.93;3.20;;;16.10;99.90;;;;;;5044044;28;20056;-77
2022/10/26 11:00:01;;;;;;;13.43;3.83;;;16.20;99.90;;;;;;5061919;28;20140;-80
2022/10/26 11:02:31;;;;;;;11.77;3.80;;;16.40;99.90;;;;;;5027745;28;20056;-79
2022/10/26 11:05:02;;;;;;;7.50;3.20;;;16.50;99.90;;;;;;5046164;28;20049;-78
2022/10/26 11:07:31;;;;;;;6.18;3.20;;;16.50;99.90;;;;;;5026589;28;20049;-77
2022/10/26 11:10:02;;;;;;;10.18;3.30;;;16.60;99.90;;;;;;5012345;28;20045;-77
2022/10/26 11:12:36;;;;;;;7.53;3.63;;;16.60;99.90;;;;;;5029350;28;20048;-78
2022/10/26 11:15:07;;;;;;;10.02;3.22;;;16.80;99.90;;;;;;5048351;28;20052;-79
2022/10/26 11:17:54;;;;;;;11.10;3.45;;;16.80;99.90;;;;;;5034572;28;20056;-80
2022/10/26 11:20:24;;;;;;;13.27;3.58;;;16.80;99.90;;;;;;5017292;28;20052;-77
2022/10/26 11:23:01;;;;;;;12.15;3.10;;;17.00;99.90;;;;;;5024895;28;20050;-79
2022/10/26 11:25:35;;;;;;;9.77;2.70;;;17.00;99.90;;;;;;5026592;28;20045;-80
2022/10/26 11:28:10;;;;;;;8.98;2.50;;;17.00;99.90;;;;;;5015032;28;20495;-78
2022/10/26 11:30:45;;;;;;;8.95;2.95;;;17.10;99.90;;;;;;5022158;28;20550;-81
2022/10/26 11:33:41;;;;;;;7.30;2.42;;;17.10;99.90;;;;;;5033177;28;20049;-80
2022/10/26 11:36:13;;;;;;;9.52;2.90;;;17.30;99.90;;;;;;5033529;28;20123;-78
2022/10/26 11:39:00;;;;;;;7.75;2.70;;;17.30;99.90;;;;;;5019187;28;20059;-76
2022/10/26 11:41:54;;;;;;;10.18;2.55;;;17.40;99.90;;;;;;5059694;28;20095;-79
2022/10/26 11:44:38;;;;;;;9.45;2.83;;;17.50;99.90;;;;;;5038054;28;20084;-77
2022/10/26 11:47:11;;;;;;;12.15;2.90;;;17.60;99.90;;;;;;5051575;28;20115;-81
2022/10/26 11:50:14;;;;;;;7.70;2.42;;;17.60;99.90;;;;;;5033425;28;20053;-78
2022/10/26 11:52:46;;;;;;;8.35;2.90;;;17.60;99.90;;;;;;5033556;28;20098;-80
2022/10/26 11:55:11;;;;;;;9.20;2.55;;;17.60;99.90;;;;;;5053757;28;20052;-78
2022/10/26 11:57:39;;;;;;;13.15;2.53;;;17.70;99.90;;;;;;5049539;28;20033;-79
2022/10/26 12:00:17;;;;;;;8.98;3.08;;;17.70;99.90;;;;;;5081149;28;20033;-79
2022/10/26 12:02:56;;;;;;;7.93;2.63;;;17.90;99.90;;;;;;5033294;28;20118;-78
2022/10/26 12:05:45;;;;;;;6.30;2.40;;;17.80;99.90;;;;;;5046026;28;20057;-78
2022/10/26 12:08:26;;;;;;;10.90;2.42;;;17.90;99.90;;;;;;5074584;28;20053;-79
2022/10/26 12:11:07;;;;;;;11.90;2.42;;;18.10;99.90;;;;;;5034372;28;21135;-77
2022/10/26 12:13:40;;;;;;;5.45;2.30;;;18.10;99.90;;;;;;5030380;28;20159;-79
2022/10/26 12:16:22;;;;;;;7.53;2.65;;;18.10;99.90;;;;;;5072235;28;20048;-78
2022/10/26 12:19:03;;;;;;;11.27;2.60;;;18.00;99.90;;;;;;5033306;28;20472;-81
2022/10/26 12:21:31;;;;;;;9.23;2.70;;;18.00;99.90;;;;;;5047976;28;20056;-81
2022/10/26 12:24:21;;;;;;;5.50;2.20;;;17.90;99.90;;;;;;5045981;28;20122;-81
2022/10/26 12:26:58;;;;;;;7.88;2.50;;;17.80;99.90;;;;;;5050698;28;20053;-81
2022/10/26 12:29:39;;;;;;;11.82;2.65;;;18.10;99.90;;;;;;5033452;28;20217;-78
2022/10/26 12:32:30;;;;;;;13.15;2.72;;;18.00;99.90;;;;;;5046044;28;20487;-78
2022/10/26 12:34:59;;;;;;;12.20;2.78;;;17.90;99.90;;;;;;5038431;28;20049;-80
2022/10/26 12:37:36;;;;;;;10.32;2.80;;;17.90;99.90;;;;;;5013973;28;20064;-79
2022/10/26 12:40:33;;;;;;;11.35;2.80;;;17.90;99.90;;;;;;5039080;28;20057;-78
2022/10/26 12:43:16;;;;;;;7.65;2.70;;;17.90;99.90;;;;;;5046296;28;20436;-77
2022/10/26 12:45:44;;;;;;;12.10;3.20;;;17.80;99.90;;;;;;5049109;28;20087;-81
2022/10/26 12:48:20;;;;;;;10.38;3.13;;;17.90;99.90;;;;;;5032996;28;20056;-77
2022/10/26 12:50:46;;;;;;;11.05;3.25;;;17.90;99.90;;;;;;5027587;28;20123;-78
2022/10/26 12:53:16;;;;;;;14.02;4.03;;;17.80;99.90;;;;;;5048021;28;20135;-79
2022/10/26 12:55:45;;;;;;;11.82;2.80;;;17.80;99.90;;;;;;5049361;28;20170;-80
2022/10/26 12:58:38;;;;;;;11.70;3.17;;;17.90;99.90;;;;;;5046704;28;20520;-79
2022/10/26 13:01:34;;;;;;;10.57;3.40;;;18.00;99.90;;;;;;5047514;28;20049;-78
2022/10/26 13:04:07;;;;;;;;;;;17.90;99.90;;;;;;5041703;28;20044;-77